Monterey, CA

8:11 PM PDT on August 22, 2014 (GMT -0700)
San Martin | Change Station
CLOSE
Current Station
Airport
Location: San Martin,
Elevation: 279 ft
Nearby Weather Stations

Elev 279 ft 37.08 °N, 121.60 °W | Updated 16 minutes ago

Clear
Clear
64 °F
Feels Like 64 °F
N
13
Wind Variable Wind from SE

Today
High -- | Low -- °F
--% Chance of Precip.
Yesterday
High -- | Low -- °F
Precip. -- in
6:30 AM 7:49 PM
Waning Crescent, 5% visible
Pressure 29.93 in
Visibility 10.0 miles
Clouds Clear
Dew Point 57 °F
Humidity 77%
Rainfall 0.00 in
Snow Depth Not available.
UV 0 out of 12
Pollen 5.70 out of 12
Air Quality Not available.
Flu Activity Not available.
METAR KE16 230255Z AUTO 14011KT 10SM CLR 18/14 A2993 RMK AO2

More Conditions Fewer Conditions

Pressure 29.93 in
Visibility 10.0 miles
Clouds Clear
Dew Point 57 °F
Humidity 77%
Rainfall 0.00 in
Snow Depth Not available.
UV 0 out of 12
Pollen 5.70 out of 12
Air Quality Not available.
Flu Activity Not available.
METAR KE16 230255Z AUTO 14011KT 10SM CLR 18/14 A2993 RMK AO2

More Conditions Fewer Conditions

10-Day Weather Forecast

Almanac

Astronomy

Aug. 22, 2014 Rise Set
Actual Time 6:30 AM PDT 7:49 PM PDT
Civil Twilight 6:03 AM PDT 8:16 PM PDT
Nautical Twilight 5:31 AM PDT 8:48 PM PDT
Astronomical Twilight 4:57 AM PDT 9:21 PM PDT
Moon 3:59 AM PDT (8/22) 5:59 PM PDT (8/22)
Length of Visible Light 14h 12m
Length of Day
13h 18m
Tomorrow will be 2m 8s shorter.
Waning Crescent, 5% of the Moon is Illuminated
Today
Waning Crescent
Aug 25
New
Sep 2
First Quarter
Sep 8
Full
Sep 15
Last Quarter

Today's Extremes

State Highs State Lows

Community

WunderPhotos

Upload Photos

1,746,345 photos uploaded!

WunderBlogs® & News

Nearby

Snow Depth

Station Depth Elevation
Leavitt Meadows 0 in 7200 ft
Summit Meadow 0 in 9122 ft
Monitor Pass 0 in 8350 ft
CSS Lab 0 in 6900 ft
Adin Mountain 1 in 6200 ft

Earthquake Activity

City Distance Mag. Time & Date
Berkeley, California 90 miles 2.6 7:41 PM PDT
2014-08-16
King City, California 58 miles 2.7 10:26 PM PDT
2014-08-15
Minimum magnitude displayed is 2.5.

Coastal Water Temperatures

Place Temperature
Monterey, CA 63.0 °F
Redwood City, CA 73.9 °F

Nearby Weather Stations